DAL2416 KATL-CYUL
Flight info
| Callsign | DAL2416 |
|---|---|
| Flight time | 2h 4m |
| Altitude | 37000 |
| Route | SMKEY2 BOBBD Q71 PSB J59 SYR DCT ART IMPAC4 |
| Aircraft | A320/M-SDE3FGHIRWY/LB1 |
Departure
| Time | 2026-05-06 16:45 |
|---|---|
| Airport | Hartsfield Jackson Atlanta International Airport (KATL) |
Arrival
| Time | 2026-05-06 18:50 |
|---|---|
| Airport | Montreal / Pierre Elliott Trudeau International Airport (CYUL) |
| Time | Latitude | Longitude | Altitude | Speed | Heading |
|---|---|---|---|---|---|
| 2026-05-06 16:12 | 33.63897 | -84.43969 | 1007 ft | 0 kts | 90° |
| 2026-05-06 16:34 | 33.63898 | -84.44008 | 1007 ft | 4 kts | 86° |
| 2026-05-06 16:34 | 33.63892 | -84.44037 | 1007 ft | 4 kts | 51° |
| 2026-05-06 16:34 | 33.63873 | -84.44051 | 1007 ft | 2 kts | 1° |
| 2026-05-06 16:34 | 33.63872 | -84.44051 | 1007 ft | 0 kts | 0° |
| 2026-05-06 16:38 | 33.63902 | -84.44051 | 1007 ft | 9 kts | 0° |
| 2026-05-06 16:38 | 33.63992 | -84.44051 | 1006 ft | 17 kts | 0° |
| 2026-05-06 16:38 | 33.64131 | -84.44052 | 1006 ft | 21 kts | 359° |
| 2026-05-06 16:38 | 33.64281 | -84.44051 | 1006 ft | 22 kts | 0° |
| 2026-05-06 16:39 | 33.64419 | -84.44011 | 1007 ft | 20 kts | 55° |
| 2026-05-06 16:39 | 33.64443 | -84.43859 | 1007 ft | 18 kts | 81° |
| 2026-05-06 16:39 | 33.64457 | -84.43721 | 1007 ft | 16 kts | 87° |
| 2026-05-06 16:39 | 33.64459 | -84.43668 | 1008 ft | 15 kts | 87° |
| 2026-05-06 16:40 | 33.64460 | -84.43533 | 1008 ft | 22 kts | 90° |
| 2026-05-06 16:40 | 33.64460 | -84.43321 | 1034 ft | 21 kts | 90° |
| 2026-05-06 16:40 | 33.64460 | -84.43092 | 1036 ft | 32 kts | 90° |
| 2026-05-06 16:40 | 33.64460 | -84.42818 | 1035 ft | 33 kts | 89° |
| 2026-05-06 16:41 | 33.64469 | -84.42538 | 1035 ft | 34 kts | 90° |
| 2026-05-06 16:41 | 33.64469 | -84.42292 | 1035 ft | 27 kts | 91° |
| 2026-05-06 16:41 | 33.64540 | -84.42116 | 1035 ft | 22 kts | 76° |
| 2026-05-06 16:41 | 33.64543 | -84.41944 | 1035 ft | 19 kts | 90° |
| 2026-05-06 16:42 | 33.64543 | -84.41790 | 1035 ft | 17 kts | 89° |
| 2026-05-06 16:42 | 33.64544 | -84.41632 | 1030 ft | 13 kts | 90° |
| 2026-05-06 16:42 | 33.64543 | -84.41486 | 1036 ft | 21 kts | 89° |
| 2026-05-06 16:42 | 33.64543 | -84.41316 | 1036 ft | 19 kts | 90° |
| 2026-05-06 16:43 | 33.64544 | -84.41162 | 1036 ft | 19 kts | 91° |
| 2026-05-06 16:43 | 33.64544 | -84.41004 | 1035 ft | 18 kts | 89° |
| 2026-05-06 16:43 | 33.64545 | -84.40859 | 1035 ft | 16 kts | 85° |
| 2026-05-06 16:43 | 33.64610 | -84.40807 | 1034 ft | 8 kts | 359° |
| 2026-05-06 16:44 | 33.64659 | -84.40809 | 1034 ft | 7 kts | 352° |
| 2026-05-06 16:44 | 33.64680 | -84.40868 | 1035 ft | 14 kts | 268° |
| 2026-05-06 16:44 | 33.64679 | -84.41246 | 1037 ft | 80 kts | 269° |
| 2026-05-06 16:44 | 33.64678 | -84.42163 | 1033 ft | 138 kts | 270° |
| 2026-05-06 16:45 | 33.64685 | -84.43364 | 1541 ft | 141 kts | 269° |
| 2026-05-06 16:45 | 33.64678 | -84.44553 | 2164 ft | 143 kts | 267° |
| 2026-05-06 16:45 | 33.64665 | -84.45767 | 2724 ft | 148 kts | 265° |
| 2026-05-06 16:45 | 33.64875 | -84.47058 | 2989 ft | 171 kts | 286° |
| 2026-05-06 16:46 | 33.65392 | -84.48459 | 3208 ft | 196 kts | 290° |
| 2026-05-06 16:46 | 33.66022 | -84.50012 | 3498 ft | 216 kts | 292° |
| 2026-05-06 16:46 | 33.66723 | -84.51729 | 3786 ft | 242 kts | 292° |
| 2026-05-06 16:46 | 33.67468 | -84.53574 | 4443 ft | 252 kts | 292° |
| 2026-05-06 16:47 | 33.68261 | -84.55461 | 5377 ft | 255 kts | 299° |
| 2026-05-06 16:47 | 33.69479 | -84.57035 | 6300 ft | 264 kts | 319° |
| 2026-05-06 16:47 | 33.71160 | -84.58002 | 7134 ft | 277 kts | 340° |
| 2026-05-06 16:47 | 33.73125 | -84.58199 | 7935 ft | 289 kts | 353° |
| 2026-05-06 16:48 | 33.75161 | -84.58173 | 8704 ft | 294 kts | 353° |
| 2026-05-06 16:48 | 33.77230 | -84.58141 | 9439 ft | 300 kts | 353° |
| 2026-05-06 16:48 | 33.78644 | -84.58121 | 9927 ft | 303 kts | 353° |
| 2026-05-06 16:48 | 33.80787 | -84.57856 | 10600 ft | 316 kts | 6° |
| 2026-05-06 16:49 | 33.82912 | -84.56941 | 10952 ft | 344 kts | 21° |
| 2026-05-06 16:49 | 33.85080 | -84.55517 | 11187 ft | 365 kts | 23° |
| 2026-05-06 16:49 | 33.87320 | -84.54018 | 11771 ft | 372 kts | 23° |
| 2026-05-06 16:49 | 33.89602 | -84.52482 | 12424 ft | 377 kts | 23° |
| 2026-05-06 16:50 | 33.91905 | -84.50930 | 13098 ft | 381 kts | 22° |
| 2026-05-06 16:50 | 33.94232 | -84.49363 | 13722 ft | 386 kts | 22° |
| 2026-05-06 16:50 | 33.96592 | -84.47779 | 13923 ft | 387 kts | 22° |
| 2026-05-06 16:50 | 33.98949 | -84.46201 | 14325 ft | 389 kts | 22° |
| 2026-05-06 16:51 | 34.01328 | -84.44613 | 15011 ft | 390 kts | 21° |
| 2026-05-06 16:51 | 34.03709 | -84.43027 | 15676 ft | 392 kts | 21° |
| 2026-05-06 16:51 | 34.06109 | -84.41430 | 16368 ft | 393 kts | 21° |
| 2026-05-06 16:51 | 34.08514 | -84.39829 | 17019 ft | 396 kts | 21° |
| 2026-05-06 16:52 | 34.10891 | -84.38241 | 17658 ft | 398 kts | 21° |
| 2026-05-06 16:52 | 34.13336 | -84.36603 | 18282 ft | 401 kts | 20° |
| 2026-05-06 16:52 | 34.15782 | -84.34963 | 18836 ft | 403 kts | 20° |
| 2026-05-06 16:52 | 34.18240 | -84.33314 | 19354 ft | 406 kts | 20° |
| 2026-05-06 16:53 | 34.20707 | -84.31658 | 19859 ft | 409 kts | 20° |
| 2026-05-06 16:53 | 34.23201 | -84.29984 | 20391 ft | 412 kts | 20° |
| 2026-05-06 16:53 | 34.25719 | -84.28291 | 20903 ft | 414 kts | 20° |
| 2026-05-06 16:53 | 34.28264 | -84.26718 | 21495 ft | 407 kts | 13° |
| 2026-05-06 16:54 | 34.30932 | -84.25680 | 22042 ft | 397 kts | 2° |
| 2026-05-06 16:54 | 34.33645 | -84.25042 | 22571 ft | 397 kts | 0° |
| 2026-05-06 16:54 | 34.36369 | -84.24419 | 23045 ft | 402 kts | 1° |
| 2026-05-06 16:54 | 34.39133 | -84.23785 | 23496 ft | 406 kts | 1° |
| 2026-05-06 16:55 | 34.41920 | -84.23140 | 23901 ft | 409 kts | 1° |
| 2026-05-06 16:55 | 34.44728 | -84.22482 | 24279 ft | 413 kts | 1° |
| 2026-05-06 16:55 | 34.47561 | -84.21814 | 24667 ft | 415 kts | 2° |
| 2026-05-06 16:55 | 34.50410 | -84.21140 | 25035 ft | 418 kts | 2° |
| 2026-05-06 16:56 | 34.53266 | -84.20464 | 25409 ft | 420 kts | 2° |
| 2026-05-06 16:56 | 34.56150 | -84.19780 | 25769 ft | 423 kts | 2° |
| 2026-05-06 16:56 | 34.59048 | -84.19095 | 26131 ft | 426 kts | 2° |
| 2026-05-06 16:56 | 34.61928 | -84.18417 | 26464 ft | 429 kts | 2° |
| 2026-05-06 16:57 | 34.64874 | -84.17726 | 26740 ft | 433 kts | 2° |
| 2026-05-06 16:57 | 34.67849 | -84.17028 | 27083 ft | 436 kts | 2° |
| 2026-05-06 16:57 | 34.70838 | -84.16323 | 27419 ft | 439 kts | 2° |
| 2026-05-06 16:57 | 34.73843 | -84.15613 | 27760 ft | 441 kts | 2° |
| 2026-05-06 16:58 | 34.76869 | -84.14898 | 28097 ft | 444 kts | 2° |
| 2026-05-06 16:58 | 34.79917 | -84.14126 | 28441 ft | 448 kts | 4° |
| 2026-05-06 16:58 | 34.82966 | -84.13293 | 28749 ft | 451 kts | 4° |
| 2026-05-06 16:58 | 34.86024 | -84.12417 | 29082 ft | 454 kts | 5° |
| 2026-05-06 16:59 | 34.89121 | -84.11518 | 29303 ft | 459 kts | 5° |
| 2026-05-06 16:59 | 34.92242 | -84.10618 | 29573 ft | 461 kts | 5° |
| 2026-05-06 16:59 | 34.95335 | -84.09739 | 29858 ft | 463 kts | 5° |
| 2026-05-06 16:59 | 34.98487 | -84.08855 | 30133 ft | 466 kts | 5° |
| 2026-05-06 17:00 | 35.01653 | -84.07974 | 30367 ft | 467 kts | 5° |
| 2026-05-06 17:00 | 35.04832 | -84.07094 | 30595 ft | 469 kts | 4° |
| 2026-05-06 17:00 | 35.08017 | -84.06212 | 30831 ft | 471 kts | 4° |
| 2026-05-06 17:00 | 35.11219 | -84.05323 | 31072 ft | 473 kts | 5° |
| 2026-05-06 17:01 | 35.14443 | -84.04425 | 31241 ft | 476 kts | 5° |
| 2026-05-06 17:01 | 35.17675 | -84.03522 | 31513 ft | 476 kts | 5° |
| 2026-05-06 17:01 | 35.20910 | -84.02612 | 31831 ft | 476 kts | 4° |
| 2026-05-06 17:01 | 35.24137 | -84.01701 | 32165 ft | 475 kts | 4° |
| 2026-05-06 17:02 | 35.27346 | -84.00797 | 32499 ft | 473 kts | 4° |
| 2026-05-06 17:02 | 35.30556 | -83.99895 | 32777 ft | 472 kts | 4° |
| 2026-05-06 17:02 | 35.33753 | -83.98996 | 33099 ft | 471 kts | 4° |
| 2026-05-06 17:02 | 35.36950 | -83.98096 | 33458 ft | 470 kts | 4° |
| 2026-05-06 17:03 | 35.40131 | -83.97201 | 33765 ft | 469 kts | 4° |
| 2026-05-06 17:03 | 35.43311 | -83.96309 | 34076 ft | 467 kts | 3° |
| 2026-05-06 17:03 | 35.46477 | -83.95419 | 34359 ft | 466 kts | 3° |
| 2026-05-06 17:03 | 35.49633 | -83.94530 | 34622 ft | 465 kts | 2° |
| 2026-05-06 17:04 | 35.52740 | -83.93653 | 34869 ft | 464 kts | 2° |
| 2026-05-06 17:04 | 35.55920 | -83.92751 | 35130 ft | 462 kts | 2° |
| 2026-05-06 17:04 | 35.59008 | -83.91873 | 35371 ft | 461 kts | 2° |
| 2026-05-06 17:04 | 35.62133 | -83.90987 | 35631 ft | 460 kts | 1° |
| 2026-05-06 17:05 | 35.65246 | -83.90105 | 35915 ft | 458 kts | 0° |
| 2026-05-06 17:05 | 35.68344 | -83.89227 | 36178 ft | 456 kts | 0° |
| 2026-05-06 17:05 | 35.71426 | -83.88356 | 36447 ft | 454 kts | 360° |
| 2026-05-06 17:05 | 35.74503 | -83.87487 | 36682 ft | 453 kts | 359° |
| 2026-05-06 17:06 | 35.77572 | -83.86610 | 36891 ft | 454 kts | 1° |
| 2026-05-06 17:06 | 35.80615 | -83.85362 | 36964 ft | 469 kts | 11° |
| 2026-05-06 17:06 | 35.83569 | -83.83499 | 36970 ft | 479 kts | 17° |
| 2026-05-06 17:07 | 35.89378 | -83.79498 | 36982 ft | 478 kts | 17° |
| 2026-05-06 17:07 | 35.95193 | -83.75481 | 36979 ft | 479 kts | 17° |
| 2026-05-06 17:08 | 36.01012 | -83.71482 | 36976 ft | 478 kts | 16° |
| 2026-05-06 17:08 | 36.06790 | -83.67517 | 36966 ft | 478 kts | 16° |
| 2026-05-06 17:09 | 36.12614 | -83.63507 | 36967 ft | 479 kts | 15° |
| 2026-05-06 17:09 | 36.18436 | -83.59485 | 36948 ft | 479 kts | 15° |
| 2026-05-06 17:10 | 36.24261 | -83.55453 | 36939 ft | 480 kts | 15° |
| 2026-05-06 17:10 | 36.30093 | -83.51423 | 36925 ft | 480 kts | 15° |
| 2026-05-06 17:11 | 36.35916 | -83.47380 | 36962 ft | 480 kts | 15° |
| 2026-05-06 17:11 | 36.41705 | -83.43355 | 36980 ft | 480 kts | 15° |
| 2026-05-06 17:12 | 36.47524 | -83.39294 | 36967 ft | 480 kts | 15° |
| 2026-05-06 17:12 | 36.53348 | -83.35225 | 36939 ft | 480 kts | 15° |
| 2026-05-06 17:13 | 36.59184 | -83.31152 | 36944 ft | 482 kts | 15° |
| 2026-05-06 17:13 | 36.65026 | -83.27064 | 36936 ft | 482 kts | 15° |
| 2026-05-06 17:14 | 36.70880 | -83.22958 | 36923 ft | 483 kts | 15° |
| 2026-05-06 17:14 | 36.76732 | -83.18833 | 36918 ft | 484 kts | 15° |
| 2026-05-06 17:15 | 36.82592 | -83.14702 | 36923 ft | 484 kts | 15° |
| 2026-05-06 17:15 | 36.88466 | -83.10563 | 36927 ft | 483 kts | 15° |
| 2026-05-06 17:16 | 36.94218 | -83.06196 | 36922 ft | 500 kts | 26° |
| 2026-05-06 17:16 | 36.96843 | -83.03227 | 36924 ft | 517 kts | 37° |
| 2026-05-06 17:16 | 36.99145 | -82.99700 | 36923 ft | 525 kts | 42° |
| 2026-05-06 17:17 | 37.03631 | -82.92460 | 36961 ft | 527 kts | 43° |
| 2026-05-06 17:17 | 37.08124 | -82.85224 | 36940 ft | 527 kts | 43° |
| 2026-05-06 17:18 | 37.12582 | -82.77908 | 36930 ft | 529 kts | 44° |
| 2026-05-06 17:18 | 37.16976 | -82.70495 | 36955 ft | 529 kts | 44° |
| 2026-05-06 17:19 | 37.21356 | -82.63078 | 36962 ft | 529 kts | 44° |
| 2026-05-06 17:19 | 37.25747 | -82.55683 | 36974 ft | 529 kts | 44° |
| 2026-05-06 17:20 | 37.30149 | -82.48279 | 36930 ft | 529 kts | 44° |
| 2026-05-06 17:20 | 37.34547 | -82.40858 | 36924 ft | 529 kts | 44° |
| 2026-05-06 17:21 | 37.38930 | -82.33423 | 36922 ft | 529 kts | 44° |
| 2026-05-06 17:21 | 37.43276 | -82.26043 | 36920 ft | 528 kts | 44° |
| 2026-05-06 17:22 | 37.47654 | -82.18612 | 36949 ft | 529 kts | 44° |
| 2026-05-06 17:22 | 37.49984 | -82.15082 | 36941 ft | 518 kts | 35° |
| 2026-05-06 17:22 | 37.52602 | -82.12041 | 36933 ft | 505 kts | 26° |
| 2026-05-06 17:23 | 37.58270 | -82.07059 | 36915 ft | 496 kts | 21° |
| 2026-05-06 17:23 | 37.63979 | -82.02167 | 36908 ft | 496 kts | 22° |
| 2026-05-06 17:24 | 37.69693 | -81.97254 | 36950 ft | 497 kts | 21° |
| 2026-05-06 17:24 | 37.75431 | -81.92322 | 36909 ft | 500 kts | 21° |
| 2026-05-06 17:25 | 37.81198 | -81.87368 | 36898 ft | 501 kts | 21° |
| 2026-05-06 17:25 | 37.86922 | -81.82418 | 36901 ft | 503 kts | 22° |
| 2026-05-06 17:26 | 37.92696 | -81.77409 | 36925 ft | 505 kts | 21° |
| 2026-05-06 17:26 | 37.98501 | -81.72363 | 36920 ft | 506 kts | 21° |
| 2026-05-06 17:27 | 38.04307 | -81.67310 | 36924 ft | 506 kts | 22° |
| 2026-05-06 17:27 | 38.10115 | -81.62255 | 36917 ft | 506 kts | 22° |
| 2026-05-06 17:28 | 38.15914 | -81.57186 | 36940 ft | 506 kts | 22° |
| 2026-05-06 17:28 | 38.21716 | -81.52108 | 36933 ft | 506 kts | 22° |
| 2026-05-06 17:29 | 38.27505 | -81.47033 | 36931 ft | 505 kts | 22° |
| 2026-05-06 17:29 | 38.33256 | -81.41989 | 36930 ft | 505 kts | 22° |
| 2026-05-06 17:30 | 38.39079 | -81.36865 | 36894 ft | 504 kts | 22° |
| 2026-05-06 17:30 | 38.44810 | -81.31810 | 36890 ft | 505 kts | 22° |
| 2026-05-06 17:31 | 38.50592 | -81.26708 | 36886 ft | 506 kts | 22° |
| 2026-05-06 17:31 | 38.56389 | -81.21583 | 36945 ft | 507 kts | 22° |
| 2026-05-06 17:32 | 38.62182 | -81.16437 | 36932 ft | 508 kts | 22° |
| 2026-05-06 17:32 | 38.67980 | -81.11277 | 36925 ft | 508 kts | 22° |
| 2026-05-06 17:33 | 38.73795 | -81.06104 | 36925 ft | 508 kts | 22° |
| 2026-05-06 17:33 | 38.79614 | -81.00916 | 36930 ft | 509 kts | 22° |
| 2026-05-06 17:34 | 38.85361 | -80.95780 | 36893 ft | 506 kts | 22° |
| 2026-05-06 17:34 | 38.91147 | -80.90598 | 36859 ft | 507 kts | 22° |
| 2026-05-06 17:35 | 38.96937 | -80.85391 | 36880 ft | 508 kts | 22° |
| 2026-05-06 17:35 | 39.02552 | -80.79698 | 36937 ft | 528 kts | 35° |
| 2026-05-06 17:36 | 39.09989 | -80.69073 | 36915 ft | 533 kts | 38° |
| 2026-05-06 17:36 | 39.14932 | -80.61943 | 36915 ft | 533 kts | 38° |
| 2026-05-06 17:37 | 39.19042 | -80.56018 | 36911 ft | 533 kts | 38° |
| 2026-05-06 17:37 | 39.23978 | -80.48897 | 36887 ft | 531 kts | 37° |
| 2026-05-06 17:38 | 39.28896 | -80.41777 | 36897 ft | 532 kts | 37° |
| 2026-05-06 17:38 | 39.33820 | -80.34638 | 36907 ft | 532 kts | 38° |
| 2026-05-06 17:39 | 39.38729 | -80.27484 | 36877 ft | 532 kts | 38° |
| 2026-05-06 17:39 | 39.43644 | -80.20300 | 36886 ft | 532 kts | 37° |
| 2026-05-06 17:40 | 39.48517 | -80.13184 | 36889 ft | 532 kts | 37° |
| 2026-05-06 17:40 | 39.53433 | -80.05992 | 36915 ft | 532 kts | 38° |
| 2026-05-06 17:41 | 39.58329 | -79.98798 | 36937 ft | 532 kts | 38° |
| 2026-05-06 17:41 | 39.63228 | -79.91588 | 36963 ft | 533 kts | 37° |
| 2026-05-06 17:42 | 39.68121 | -79.84364 | 36949 ft | 533 kts | 37° |
| 2026-05-06 17:42 | 39.73012 | -79.77147 | 36906 ft | 533 kts | 38° |
| 2026-05-06 17:43 | 39.77906 | -79.69905 | 36909 ft | 532 kts | 38° |
| 2026-05-06 17:43 | 39.82780 | -79.62659 | 36908 ft | 531 kts | 37° |
| 2026-05-06 17:44 | 39.87637 | -79.55437 | 36907 ft | 530 kts | 37° |
| 2026-05-06 17:44 | 39.92488 | -79.48210 | 36905 ft | 531 kts | 37° |
| 2026-05-06 17:45 | 39.97349 | -79.40948 | 36855 ft | 531 kts | 38° |
| 2026-05-06 17:45 | 40.02169 | -79.33724 | 36902 ft | 531 kts | 38° |
| 2026-05-06 17:46 | 40.07009 | -79.26443 | 36874 ft | 531 kts | 38° |
| 2026-05-06 17:46 | 40.11852 | -79.19147 | 36886 ft | 531 kts | 38° |
| 2026-05-06 17:47 | 40.16700 | -79.11851 | 36879 ft | 531 kts | 38° |
| 2026-05-06 17:47 | 40.21580 | -79.04634 | 36848 ft | 530 kts | 37° |
| 2026-05-06 17:48 | 40.26483 | -78.97432 | 36862 ft | 529 kts | 37° |
| 2026-05-06 17:48 | 40.31373 | -78.90213 | 36879 ft | 530 kts | 38° |
| 2026-05-06 17:49 | 40.36251 | -78.82954 | 36887 ft | 530 kts | 38° |
| 2026-05-06 17:49 | 40.41106 | -78.75685 | 36857 ft | 529 kts | 38° |
| 2026-05-06 17:50 | 40.45950 | -78.68428 | 36803 ft | 529 kts | 38° |
| 2026-05-06 17:50 | 40.50805 | -78.61156 | 36802 ft | 529 kts | 38° |
| 2026-05-06 17:51 | 40.55665 | -78.53867 | 36813 ft | 529 kts | 38° |
| 2026-05-06 17:51 | 40.60515 | -78.46570 | 36849 ft | 530 kts | 38° |
| 2026-05-06 17:52 | 40.65364 | -78.39247 | 36839 ft | 530 kts | 38° |
| 2026-05-06 17:52 | 40.70167 | -78.31969 | 36831 ft | 530 kts | 38° |
| 2026-05-06 17:53 | 40.75005 | -78.24630 | 36889 ft | 530 kts | 38° |
| 2026-05-06 17:53 | 40.79844 | -78.17276 | 36815 ft | 530 kts | 38° |
| 2026-05-06 17:54 | 40.84675 | -78.09918 | 36815 ft | 530 kts | 39° |
| 2026-05-06 17:54 | 40.89529 | -78.02554 | 36813 ft | 527 kts | 35° |
| 2026-05-06 17:55 | 40.92173 | -77.99309 | 36831 ft | 512 kts | 25° |
| 2026-05-06 17:55 | 40.95041 | -77.96646 | 36855 ft | 496 kts | 17° |
| 2026-05-06 17:55 | 41.00991 | -77.92089 | 36825 ft | 493 kts | 16° |
| 2026-05-06 17:56 | 41.06903 | -77.87568 | 36825 ft | 493 kts | 16° |
| 2026-05-06 17:56 | 41.12881 | -77.82977 | 36821 ft | 494 kts | 16° |
| 2026-05-06 17:57 | 41.18785 | -77.78421 | 36789 ft | 493 kts | 16° |
| 2026-05-06 17:57 | 41.24723 | -77.73819 | 36785 ft | 494 kts | 16° |
| 2026-05-06 17:58 | 41.30665 | -77.69220 | 36791 ft | 495 kts | 16° |
| 2026-05-06 17:58 | 41.36618 | -77.64606 | 36825 ft | 496 kts | 17° |
| 2026-05-06 17:59 | 41.42586 | -77.59966 | 36813 ft | 497 kts | 17° |
| 2026-05-06 17:59 | 41.48560 | -77.55312 | 36806 ft | 497 kts | 17° |
| 2026-05-06 18:00 | 41.54535 | -77.50642 | 36865 ft | 498 kts | 17° |
| 2026-05-06 18:00 | 41.60515 | -77.45957 | 36861 ft | 499 kts | 17° |
| 2026-05-06 18:01 | 41.66506 | -77.41265 | 36852 ft | 498 kts | 17° |
| 2026-05-06 18:01 | 41.72488 | -77.36561 | 36887 ft | 499 kts | 18° |
| 2026-05-06 18:02 | 41.78459 | -77.31848 | 36842 ft | 497 kts | 18° |
| 2026-05-06 18:02 | 41.84437 | -77.27140 | 36853 ft | 498 kts | 18° |
| 2026-05-06 18:03 | 41.90377 | -77.22440 | 36852 ft | 499 kts | 19° |
| 2026-05-06 18:03 | 41.96355 | -77.17681 | 36859 ft | 499 kts | 18° |
| 2026-05-06 18:04 | 42.02334 | -77.12928 | 36860 ft | 499 kts | 19° |
| 2026-05-06 18:04 | 42.08310 | -77.08168 | 36856 ft | 499 kts | 19° |
| 2026-05-06 18:05 | 42.14290 | -77.03398 | 36862 ft | 499 kts | 19° |
| 2026-05-06 18:05 | 42.20227 | -76.98643 | 36875 ft | 500 kts | 19° |
| 2026-05-06 18:06 | 42.26203 | -76.93852 | 36874 ft | 500 kts | 19° |
| 2026-05-06 18:06 | 42.32183 | -76.89052 | 36869 ft | 499 kts | 19° |
| 2026-05-06 18:07 | 42.38143 | -76.84245 | 36850 ft | 499 kts | 19° |
| 2026-05-06 18:07 | 42.44110 | -76.79425 | 36864 ft | 499 kts | 19° |
| 2026-05-06 18:08 | 42.50074 | -76.74606 | 36890 ft | 499 kts | 20° |
| 2026-05-06 18:08 | 42.56030 | -76.69776 | 36881 ft | 499 kts | 20° |
| 2026-05-06 18:09 | 42.61949 | -76.64958 | 36878 ft | 499 kts | 20° |
| 2026-05-06 18:09 | 42.67905 | -76.60105 | 36860 ft | 498 kts | 20° |
| 2026-05-06 18:10 | 42.73842 | -76.55248 | 36855 ft | 498 kts | 20° |
| 2026-05-06 18:10 | 42.79785 | -76.50389 | 36821 ft | 498 kts | 20° |
| 2026-05-06 18:11 | 42.85717 | -76.45531 | 36877 ft | 498 kts | 21° |
| 2026-05-06 18:11 | 42.91659 | -76.40651 | 36882 ft | 498 kts | 21° |
| 2026-05-06 18:12 | 42.97595 | -76.35762 | 36881 ft | 498 kts | 21° |
| 2026-05-06 18:12 | 43.03526 | -76.30865 | 36867 ft | 497 kts | 22° |
| 2026-05-06 18:13 | 43.09380 | -76.26000 | 36853 ft | 495 kts | 22° |
| 2026-05-06 18:13 | 43.15369 | -76.21528 | 36854 ft | 480 kts | 10° |
| 2026-05-06 18:14 | 43.18509 | -76.20187 | 36854 ft | 466 kts | 0° |
| 2026-05-06 18:14 | 43.21704 | -76.19466 | 36883 ft | 456 kts | 355° |
| 2026-05-06 18:14 | 43.27977 | -76.18377 | 36865 ft | 457 kts | 356° |
| 2026-05-06 18:15 | 43.34290 | -76.17263 | 36858 ft | 458 kts | 356° |
| 2026-05-06 18:15 | 43.40630 | -76.16151 | 36891 ft | 459 kts | 356° |
| 2026-05-06 18:16 | 43.46974 | -76.15041 | 36871 ft | 460 kts | 356° |
| 2026-05-06 18:16 | 43.53332 | -76.13918 | 36831 ft | 460 kts | 356° |
| 2026-05-06 18:17 | 43.59687 | -76.12785 | 36885 ft | 460 kts | 357° |
| 2026-05-06 18:17 | 43.66052 | -76.11661 | 36874 ft | 461 kts | 357° |
| 2026-05-06 18:18 | 43.72420 | -76.10538 | 36872 ft | 461 kts | 357° |
| 2026-05-06 18:18 | 43.78738 | -76.09417 | 36894 ft | 461 kts | 358° |
| 2026-05-06 18:19 | 43.85123 | -76.08272 | 36888 ft | 462 kts | 358° |
| 2026-05-06 18:19 | 43.91495 | -76.07117 | 36876 ft | 464 kts | 360° |
| 2026-05-06 18:20 | 43.94674 | -76.06058 | 36877 ft | 477 kts | 11° |
| 2026-05-06 18:20 | 43.97766 | -76.04206 | 36724 ft | 490 kts | 22° |
| 2026-05-06 18:20 | 44.00687 | -76.01691 | 36474 ft | 495 kts | 26° |
| 2026-05-06 18:20 | 44.03584 | -75.99107 | 36148 ft | 495 kts | 26° |
| 2026-05-06 18:21 | 44.06485 | -75.96524 | 35520 ft | 494 kts | 26° |
| 2026-05-06 18:21 | 44.09373 | -75.93959 | 34943 ft | 492 kts | 26° |
| 2026-05-06 18:21 | 44.12259 | -75.91402 | 34340 ft | 492 kts | 26° |
| 2026-05-06 18:21 | 44.15141 | -75.88855 | 33693 ft | 492 kts | 26° |
| 2026-05-06 18:22 | 44.18032 | -75.86296 | 33079 ft | 489 kts | 27° |
| 2026-05-06 18:22 | 44.20887 | -75.83763 | 32494 ft | 486 kts | 27° |
| 2026-05-06 18:22 | 44.23738 | -75.81224 | 31908 ft | 483 kts | 27° |
| 2026-05-06 18:22 | 44.26561 | -75.78706 | 31340 ft | 480 kts | 27° |
| 2026-05-06 18:23 | 44.29373 | -75.76194 | 30771 ft | 477 kts | 27° |
| 2026-05-06 18:23 | 44.32158 | -75.73705 | 30259 ft | 474 kts | 27° |
| 2026-05-06 18:23 | 44.34884 | -75.71267 | 29722 ft | 470 kts | 28° |
| 2026-05-06 18:23 | 44.37653 | -75.68792 | 29085 ft | 461 kts | 27° |
| 2026-05-06 18:24 | 44.39415 | -75.67211 | 28762 ft | 449 kts | 27° |
| 2026-05-06 18:24 | 44.42812 | -75.64148 | 28150 ft | 429 kts | 27° |
| 2026-05-06 18:24 | 44.45294 | -75.61913 | 27704 ft | 422 kts | 27° |
| 2026-05-06 18:24 | 44.47774 | -75.59693 | 27480 ft | 424 kts | 27° |
| 2026-05-06 18:25 | 44.50269 | -75.57461 | 27144 ft | 426 kts | 27° |
| 2026-05-06 18:25 | 44.51961 | -75.55947 | 26941 ft | 426 kts | 27° |
| 2026-05-06 18:25 | 44.54423 | -75.53737 | 26646 ft | 425 kts | 28° |
| 2026-05-06 18:25 | 44.56905 | -75.51501 | 26345 ft | 423 kts | 28° |
| 2026-05-06 18:26 | 44.59377 | -75.49269 | 26048 ft | 421 kts | 28° |
| 2026-05-06 18:26 | 44.61831 | -75.47049 | 25744 ft | 418 kts | 28° |
| 2026-05-06 18:26 | 44.64270 | -75.44844 | 25447 ft | 416 kts | 28° |
| 2026-05-06 18:26 | 44.66695 | -75.42649 | 25151 ft | 415 kts | 27° |
| 2026-05-06 18:27 | 44.69120 | -75.40450 | 24857 ft | 413 kts | 27° |
| 2026-05-06 18:27 | 44.71501 | -75.38208 | 24557 ft | 413 kts | 33° |
| 2026-05-06 18:27 | 44.73634 | -75.35497 | 24272 ft | 416 kts | 44° |
| 2026-05-06 18:27 | 44.74793 | -75.33644 | 24093 ft | 415 kts | 46° |
| 2026-05-06 18:28 | 44.75168 | -75.33036 | 24038 ft | 415 kts | 46° |
| 2026-05-06 18:28 | 44.77060 | -75.29976 | 23742 ft | 413 kts | 46° |
| 2026-05-06 18:28 | 44.78940 | -75.26940 | 23447 ft | 411 kts | 46° |
| 2026-05-06 18:28 | 44.80815 | -75.23915 | 23128 ft | 409 kts | 46° |
| 2026-05-06 18:29 | 44.82685 | -75.20899 | 22843 ft | 408 kts | 46° |
| 2026-05-06 18:29 | 44.84528 | -75.17923 | 22561 ft | 407 kts | 46° |
| 2026-05-06 18:29 | 44.86379 | -75.14921 | 22285 ft | 405 kts | 46° |
| 2026-05-06 18:29 | 44.88221 | -75.11927 | 21988 ft | 403 kts | 46° |
| 2026-05-06 18:30 | 44.90055 | -75.08940 | 21693 ft | 402 kts | 46° |
| 2026-05-06 18:30 | 44.91880 | -75.05965 | 21412 ft | 400 kts | 46° |
| 2026-05-06 18:30 | 44.93701 | -75.02999 | 21143 ft | 399 kts | 46° |
| 2026-05-06 18:30 | 44.95537 | -75.00012 | 20847 ft | 397 kts | 46° |
| 2026-05-06 18:31 | 44.97318 | -74.97108 | 20571 ft | 396 kts | 47° |
| 2026-05-06 18:31 | 44.98961 | -74.93994 | 20285 ft | 395 kts | 58° |
| 2026-05-06 18:31 | 45.00317 | -74.90620 | 20004 ft | 395 kts | 60° |
| 2026-05-06 18:31 | 45.01662 | -74.87237 | 19728 ft | 394 kts | 60° |
| 2026-05-06 18:32 | 45.03003 | -74.83867 | 19449 ft | 392 kts | 60° |
| 2026-05-06 18:32 | 45.04337 | -74.80512 | 19170 ft | 391 kts | 60° |
| 2026-05-06 18:32 | 45.05667 | -74.77163 | 18893 ft | 389 kts | 60° |
| 2026-05-06 18:32 | 45.06990 | -74.73829 | 18607 ft | 388 kts | 60° |
| 2026-05-06 18:33 | 45.08308 | -74.70509 | 18326 ft | 386 kts | 60° |
| 2026-05-06 18:33 | 45.09622 | -74.67193 | 18023 ft | 385 kts | 60° |
| 2026-05-06 18:33 | 45.10926 | -74.63908 | 17879 ft | 384 kts | 60° |
| 2026-05-06 18:33 | 45.12240 | -74.60615 | 17611 ft | 382 kts | 60° |
| 2026-05-06 18:34 | 45.13602 | -74.57384 | 17337 ft | 381 kts | 58° |
| 2026-05-06 18:34 | 45.14999 | -74.54209 | 17069 ft | 379 kts | 57° |
| 2026-05-06 18:34 | 45.16404 | -74.51065 | 16800 ft | 377 kts | 57° |
| 2026-05-06 18:34 | 45.17802 | -74.47933 | 16530 ft | 375 kts | 57° |
| 2026-05-06 18:35 | 45.19187 | -74.44804 | 16269 ft | 374 kts | 58° |
| 2026-05-06 18:35 | 45.20555 | -74.41694 | 16004 ft | 372 kts | 58° |
| 2026-05-06 18:35 | 45.21904 | -74.38607 | 15512 ft | 375 kts | 58° |
| 2026-05-06 18:35 | 45.23289 | -74.35409 | 15022 ft | 377 kts | 58° |
| 2026-05-06 18:36 | 45.24641 | -74.32269 | 14541 ft | 379 kts | 58° |
| 2026-05-06 18:36 | 45.26015 | -74.29067 | 14043 ft | 381 kts | 59° |
| 2026-05-06 18:36 | 45.27391 | -74.25859 | 13644 ft | 377 kts | 59° |
| 2026-05-06 18:36 | 45.28746 | -74.22706 | 13011 ft | 370 kts | 58° |
| 2026-05-06 18:37 | 45.30065 | -74.19633 | 12538 ft | 358 kts | 58° |
| 2026-05-06 18:37 | 45.31348 | -74.16645 | 12084 ft | 349 kts | 58° |
| 2026-05-06 18:37 | 45.32601 | -74.13724 | 11639 ft | 347 kts | 58° |
| 2026-05-06 18:37 | 45.33859 | -74.10792 | 11180 ft | 346 kts | 58° |
| 2026-05-06 18:38 | 45.35105 | -74.07892 | 10736 ft | 341 kts | 58° |
| 2026-05-06 18:38 | 45.36493 | -74.05186 | 10291 ft | 336 kts | 45° |
| 2026-05-06 18:38 | 45.38169 | -74.02923 | 9859 ft | 330 kts | 39° |
| 2026-05-06 18:38 | 45.39860 | -74.00739 | 9400 ft | 326 kts | 40° |
| 2026-05-06 18:39 | 45.41521 | -73.98581 | 8970 ft | 321 kts | 40° |
| 2026-05-06 18:39 | 45.43149 | -73.96455 | 8555 ft | 316 kts | 40° |
| 2026-05-06 18:39 | 45.44765 | -73.94343 | 8160 ft | 314 kts | 40° |
| 2026-05-06 18:40 | 45.47922 | -73.90218 | 7531 ft | 302 kts | 40° |
| 2026-05-06 18:40 | 45.49454 | -73.88214 | 7202 ft | 297 kts | 40° |
| 2026-05-06 18:40 | 45.50969 | -73.86231 | 6806 ft | 294 kts | 40° |
| 2026-05-06 18:40 | 45.52470 | -73.84264 | 6406 ft | 292 kts | 40° |
| 2026-05-06 18:41 | 45.53935 | -73.82346 | 6072 ft | 286 kts | 40° |
| 2026-05-06 18:41 | 45.55411 | -73.80415 | 5578 ft | 281 kts | 40° |
| 2026-05-06 18:41 | 45.56815 | -73.78579 | 5144 ft | 274 kts | 40° |
| 2026-05-06 18:41 | 45.58202 | -73.76765 | 4707 ft | 269 kts | 40° |
| 2026-05-06 18:42 | 45.59565 | -73.74980 | 4372 ft | 260 kts | 40° |
| 2026-05-06 18:42 | 45.60842 | -73.73301 | 4311 ft | 241 kts | 40° |
| 2026-05-06 18:42 | 45.62031 | -73.71736 | 4239 ft | 224 kts | 40° |
| 2026-05-06 18:42 | 45.63165 | -73.70247 | 4152 ft | 220 kts | 40° |
| 2026-05-06 18:43 | 45.64292 | -73.68769 | 4058 ft | 219 kts | 40° |
| 2026-05-06 18:43 | 45.65418 | -73.67291 | 3973 ft | 218 kts | 40° |
| 2026-05-06 18:43 | 45.66534 | -73.65823 | 3932 ft | 218 kts | 40° |
| 2026-05-06 18:43 | 45.67650 | -73.64352 | 3882 ft | 218 kts | 40° |
| 2026-05-06 18:44 | 45.68672 | -73.62748 | 3820 ft | 220 kts | 56° |
| 2026-05-06 18:44 | 45.69139 | -73.60660 | 3712 ft | 224 kts | 87° |
| 2026-05-06 18:44 | 45.68773 | -73.58521 | 3542 ft | 226 kts | 120° |
| 2026-05-06 18:44 | 45.67661 | -73.56978 | 3383 ft | 226 kts | 152° |
| 2026-05-06 18:45 | 45.66243 | -73.56014 | 3229 ft | 226 kts | 155° |
| 2026-05-06 18:45 | 45.64776 | -73.55266 | 3117 ft | 226 kts | 171° |
| 2026-05-06 18:45 | 45.63221 | -73.55273 | 3013 ft | 224 kts | 192° |
| 2026-05-06 18:45 | 45.61783 | -73.56060 | 3002 ft | 221 kts | 213° |
| 2026-05-06 18:46 | 45.60592 | -73.57452 | 3007 ft | 221 kts | 224° |
| 2026-05-06 18:46 | 45.59491 | -73.58908 | 3004 ft | 210 kts | 224° |
| 2026-05-06 18:46 | 45.58431 | -73.60309 | 2872 ft | 206 kts | 225° |
| 2026-05-06 18:46 | 45.57401 | -73.61667 | 2644 ft | 200 kts | 224° |
| 2026-05-06 18:47 | 45.56374 | -73.63019 | 2361 ft | 196 kts | 223° |
| 2026-05-06 18:47 | 45.55402 | -73.64299 | 2091 ft | 190 kts | 223° |
| 2026-05-06 18:47 | 45.54448 | -73.65554 | 1824 ft | 184 kts | 223° |
| 2026-05-06 18:47 | 45.53529 | -73.66759 | 1535 ft | 174 kts | 223° |
| 2026-05-06 18:48 | 45.52701 | -73.67852 | 1399 ft | 152 kts | 222° |
| 2026-05-06 18:48 | 45.51952 | -73.68830 | 1148 ft | 140 kts | 222° |
| 2026-05-06 18:48 | 45.51245 | -73.69756 | 921 ft | 135 kts | 222° |
| 2026-05-06 18:48 | 45.50561 | -73.70664 | 759 ft | 134 kts | 222° |
| 2026-05-06 18:49 | 45.49879 | -73.71562 | 586 ft | 132 kts | 222° |
| 2026-05-06 18:49 | 45.49196 | -73.72447 | 395 ft | 132 kts | 222° |
| 2026-05-06 18:49 | 45.48524 | -73.73336 | 216 ft | 132 kts | 222° |
| 2026-05-06 18:49 | 45.47868 | -73.74197 | 116 ft | 120 kts | 222° |
| 2026-05-06 18:50 | 45.47412 | -73.74792 | 112 ft | 48 kts | 222° |
| 2026-05-06 18:50 | 45.47271 | -73.74928 | 114 ft | 17 kts | 200° |
| 2026-05-06 18:50 | 45.47145 | -73.74971 | 112 ft | 20 kts | 192° |
| 2026-05-06 18:50 | 45.47000 | -73.75020 | 110 ft | 23 kts | 194° |
| 2026-05-06 18:51 | 45.46860 | -73.75129 | 108 ft | 25 kts | 221° |
| 2026-05-06 18:51 | 45.46734 | -73.75294 | 107 ft | 26 kts | 223° |
| 2026-05-06 18:51 | 45.46596 | -73.75475 | 105 ft | 28 kts | 222° |
| 2026-05-06 18:51 | 45.46460 | -73.75653 | 104 ft | 25 kts | 221° |
| 2026-05-06 18:52 | 45.46304 | -73.75725 | 104 ft | 23 kts | 189° |
| 2026-05-06 18:52 | 45.46143 | -73.75723 | 102 ft | 24 kts | 178° |
| 2026-05-06 18:52 | 45.46055 | -73.75806 | 104 ft | 13 kts | 284° |
| 2026-05-06 18:52 | 45.46050 | -73.75927 | 104 ft | 12 kts | 249° |
| 2026-05-06 18:53 | 45.45977 | -73.75957 | 105 ft | 12 kts | 177° |
| 2026-05-06 18:53 | 45.45882 | -73.75947 | 105 ft | 15 kts | 170° |
| 2026-05-06 18:53 | 45.45781 | -73.75886 | 105 ft | 16 kts | 127° |
| 2026-05-06 18:53 | 45.45708 | -73.75750 | 103 ft | 18 kts | 135° |
| 2026-05-06 18:54 | 45.45585 | -73.75698 | 105 ft | 20 kts | 168° |
| 2026-05-06 18:54 | 45.45444 | -73.75659 | 105 ft | 22 kts | 169° |
| 2026-05-06 18:54 | 45.45409 | -73.75579 | 103 ft | 6 kts | 71° |
| 2026-05-06 18:54 | 45.45422 | -73.75522 | 105 ft | 6 kts | 72° |
| 2026-05-06 18:55 | 45.45447 | -73.75479 | 104 ft | 7 kts | 20° |
| 2026-05-06 18:55 | 45.45483 | -73.75490 | 105 ft | 1 kts | 344° |
| 2026-05-06 18:55 | 45.45490 | -73.75492 | 105 ft | 0 kts | 346° |